| |
Missouri Department of Transportation

Social Media Facebook Twitter Flickr Instagram YouTube RSS

Current AWOS Information

 
AWOS Home - General Info for all Airports
Current AWOS for all Airports - Current METAR for all Airports
Glossary - Disclaimer - Other Links


SULLIVAN--SULLIVAN REGIONAL--KUUV
 
Recent AWOS History
 
03/04/15     02:12 PM CST      20:12 GMT
Air Temperature 22°F (-6°C ) 1st Cloud Layer Scattered at 900 feet
Dew Point 9°F (-13°C) 2nd Cloud Layer Broken at 1,500 feet
Barometric Pressure 30.24 in Hg. 3rd Cloud Layer Broken at 2,100 feet
Wind Speed 7 mph (6 knots) Density Altitude  
Peak Wind Gusts   Variable Wind Directions  
Wind Direction Quadrant(350°) Variable Visibility  
Visibility 7 statute miles  

Thunderstorm and Precipitation Identification: 
Thunderstorm Remarks: 

Current METAR Record: METAR KUUV 042015Z AUTO 34004KT 7SM SCT009 BKN017 M06/M12 A3024 RMK AO2

 

 

 

About Us
How Do I...
Contact Us
Missouri Department of Transportation
Central Office
105 W. Capitol Avenue
Jefferson City, MO 65102
1-888-ASK-MODOT (275-6636)
1-866-831-6277 (Motor Carrier Services)
Drivers License Offices
horz_bar
| | |
Missouri State Government
© 2013 Missouri Department of Transportation. All Rights Reserved.   Privacy Policy.
 
 
 
 
RSS FeedYoutubeBlogFlickrTwitter Facebook